sensor_id;sensor_type;location;lat;lon;timestamp;P1;durP1;ratioP1;P2;durP2;ratioP2
63217;SDS011;49314;48.278;16.378;2023-03-17T00:02:05;24.50;;;23.10;;
63217;SDS011;49314;48.278;16.378;2023-03-17T00:04:30;22.88;;;20.63;;
63217;SDS011;49314;48.278;16.378;2023-03-17T00:06:55;36.13;;;33.92;;
63217;SDS011;49314;48.278;16.378;2023-03-17T00:09:21;29.95;;;28.38;;
63217;SDS011;49314;48.278;16.378;2023-03-17T00:11:47;13.85;;;12.95;;
63217;SDS011;49314;48.278;16.378;2023-03-17T00:14:12;28.38;;;27.05;;
63217;SDS011;49314;48.278;16.378;2023-03-17T00:16:39;27.35;;;25.90;;
63217;SDS011;49314;48.278;16.378;2023-03-17T00:19:05;12.20;;;11.18;;
63217;SDS011;49314;48.278;16.378;2023-03-17T00:21:31;24.05;;;22.52;;
63217;SDS011;49314;48.278;16.378;2023-03-17T00:23:57;28.77;;;27.42;;
63217;SDS011;49314;48.278;16.378;2023-03-17T00:26:23;26.88;;;25.55;;
63217;SDS011;49314;48.278;16.378;2023-03-17T00:28:49;26.90;;;25.20;;
63217;SDS011;49314;48.278;16.378;2023-03-17T00:31:19;30.27;;;28.52;;
63217;SDS011;49314;48.278;16.378;2023-03-17T00:33:46;29.15;;;27.65;;
63217;SDS011;49314;48.278;16.378;2023-03-17T00:36:19;28.85;;;27.35;;
63217;SDS011;49314;48.278;16.378;2023-03-17T00:38:45;31.35;;;29.55;;
63217;SDS011;49314;48.278;16.378;2023-03-17T00:41:11;30.95;;;29.17;;
63217;SDS011;49314;48.278;16.378;2023-03-17T00:43:36;24.40;;;22.55;;
63217;SDS011;49314;48.278;16.378;2023-03-17T00:46:04;29.50;;;27.58;;
63217;SDS011;49314;48.278;16.378;2023-03-17T00:48:33;31.52;;;29.55;;
63217;SDS011;49314;48.278;16.378;2023-03-17T00:50:58;28.33;;;26.73;;
63217;SDS011;49314;48.278;16.378;2023-03-17T00:53:24;31.25;;;29.45;;
63217;SDS011;49314;48.278;16.378;2023-03-17T00:55:49;31.00;;;28.83;;
63217;SDS011;49314;48.278;16.378;2023-03-17T00:58:16;30.48;;;28.70;;
63217;SDS011;49314;48.278;16.378;2023-03-17T01:00:43;29.23;;;27.65;;
63217;SDS011;49314;48.278;16.378;2023-03-17T01:03:09;29.58;;;27.77;;
63217;SDS011;49314;48.278;16.378;2023-03-17T01:05:35;29.25;;;27.75;;
63217;SDS011;49314;48.278;16.378;2023-03-17T01:08:01;28.63;;;27.17;;
63217;SDS011;49314;48.278;16.378;2023-03-17T01:10:27;28.05;;;26.55;;
63217;SDS011;49314;48.278;16.378;2023-03-17T01:12:53;23.05;;;21.55;;
63217;SDS011;49314;48.278;16.378;2023-03-17T01:15:20;27.55;;;26.20;;
63217;SDS011;49314;48.278;16.378;2023-03-17T01:17:46;27.40;;;25.98;;
63217;SDS011;49314;48.278;16.378;2023-03-17T01:20:16;26.92;;;25.85;;
63217;SDS011;49314;48.278;16.378;2023-03-17T01:22:42;22.90;;;21.77;;
63217;SDS011;49314;48.278;16.378;2023-03-17T01:25:07;29.58;;;28.23;;
63217;SDS011;49314;48.278;16.378;2023-03-17T01:27:33;28.65;;;27.08;;
63217;SDS011;49314;48.278;16.378;2023-03-17T01:29:59;26.48;;;25.33;;
63217;SDS011;49314;48.278;16.378;2023-03-17T01:32:25;27.35;;;25.63;;
63217;SDS011;49314;48.278;16.378;2023-03-17T01:34:50;28.02;;;26.92;;
63217;SDS011;49314;48.278;16.378;2023-03-17T01:37:17;28.10;;;26.70;;
63217;SDS011;49314;48.278;16.378;2023-03-17T01:39:42;27.13;;;25.83;;
63217;SDS011;49314;48.278;16.378;2023-03-17T01:42:07;26.20;;;24.90;;
63217;SDS011;49314;48.278;16.378;2023-03-17T01:44:33;13.60;;;12.80;;
63217;SDS011;49314;48.278;16.378;2023-03-17T01:46:58;28.02;;;26.52;;
63217;SDS011;49314;48.278;16.378;2023-03-17T01:49:28;27.65;;;26.05;;
63217;SDS011;49314;48.278;16.378;2023-03-17T01:54:29;28.33;;;26.98;;
63217;SDS011;49314;48.278;16.378;2023-03-17T01:57:01;27.58;;;26.17;;
63217;SDS011;49314;48.278;16.378;2023-03-17T01:59:29;26.55;;;25.45;;
63217;SDS011;49314;48.278;16.378;2023-03-17T02:01:57;26.67;;;25.48;;
63217;SDS011;49314;48.278;16.378;2023-03-17T02:04:23;25.83;;;24.73;;
63217;SDS011;49314;48.278;16.378;2023-03-17T02:06:50;26.45;;;25.15;;
63217;SDS011;49314;48.278;16.378;2023-03-17T02:09:16;26.90;;;25.70;;
63217;SDS011;49314;48.278;16.378;2023-03-17T02:11:41;27.85;;;26.75;;
63217;SDS011;49314;48.278;16.378;2023-03-17T02:14:07;26.23;;;25.13;;
63217;SDS011;49314;48.278;16.378;2023-03-17T02:16:32;24.50;;;23.38;;
63217;SDS011;49314;48.278;16.378;2023-03-17T02:18:58;25.23;;;24.10;;
63217;SDS011;49314;48.278;16.378;2023-03-17T02:24:32;26.42;;;25.40;;
63217;SDS011;49314;48.278;16.378;2023-03-17T02:27:03;26.05;;;24.90;;
63217;SDS011;49314;48.278;16.378;2023-03-17T02:29:30;25.42;;;24.42;;
63217;SDS011;49314;48.278;16.378;2023-03-17T02:31:56;26.63;;;25.30;;
63217;SDS011;49314;48.278;16.378;2023-03-17T02:34:22;28.38;;;26.48;;
63217;SDS011;49314;48.278;16.378;2023-03-17T02:36:47;25.60;;;24.42;;
63217;SDS011;49314;48.278;16.378;2023-03-17T02:39:12;22.00;;;20.58;;
63217;SDS011;49314;48.278;16.378;2023-03-17T02:41:37;28.60;;;27.10;;
63217;SDS011;49314;48.278;16.378;2023-03-17T02:44:03;28.23;;;26.70;;
63217;SDS011;49314;48.278;16.378;2023-03-17T02:46:28;27.90;;;26.63;;
63217;SDS011;49314;48.278;16.378;2023-03-17T02:48:53;26.90;;;25.60;;
63217;SDS011;49314;48.278;16.378;2023-03-17T02:51:19;27.83;;;26.65;;
63217;SDS011;49314;48.278;16.378;2023-03-17T02:53:45;28.95;;;27.58;;
63217;SDS011;49314;48.278;16.378;2023-03-17T02:56:10;27.85;;;26.40;;
63217;SDS011;49314;48.278;16.378;2023-03-17T02:58:35;28.05;;;26.75;;
63217;SDS011;49314;48.278;16.378;2023-03-17T03:01:00;27.52;;;26.27;;
63217;SDS011;49314;48.278;16.378;2023-03-17T03:03:26;28.38;;;26.98;;
63217;SDS011;49314;48.278;16.378;2023-03-17T03:05:51;13.75;;;12.75;;
63217;SDS011;49314;48.278;16.378;2023-03-17T03:08:17;29.50;;;28.00;;
63217;SDS011;49314;48.278;16.378;2023-03-17T03:10:42;26.30;;;25.02;;
63217;SDS011;49314;48.278;16.378;2023-03-17T03:13:07;28.60;;;27.25;;
63217;SDS011;49314;48.278;16.378;2023-03-17T03:15:32;29.55;;;27.98;;
63217;SDS011;49314;48.278;16.378;2023-03-17T03:17:58;26.55;;;25.23;;
63217;SDS011;49314;48.278;16.378;2023-03-17T03:20:23;27.13;;;25.77;;
63217;SDS011;49314;48.278;16.378;2023-03-17T03:22:49;29.17;;;27.73;;
63217;SDS011;49314;48.278;16.378;2023-03-17T03:25:14;26.73;;;25.30;;
63217;SDS011;49314;48.278;16.378;2023-03-17T03:27:40;27.40;;;25.90;;
63217;SDS011;49314;48.278;16.378;2023-03-17T03:30:05;26.08;;;24.85;;
63217;SDS011;49314;48.278;16.378;2023-03-17T03:32:32;29.15;;;27.55;;
63217;SDS011;49314;48.278;16.378;2023-03-17T03:34:57;31.85;;;29.73;;
63217;SDS011;49314;48.278;16.378;2023-03-17T03:37:23;28.95;;;27.33;;
63217;SDS011;49314;48.278;16.378;2023-03-17T03:39:48;30.88;;;29.25;;
63217;SDS011;49314;48.278;16.378;2023-03-17T03:42:13;29.77;;;28.08;;
63217;SDS011;49314;48.278;16.378;2023-03-17T03:44:38;29.88;;;28.23;;
63217;SDS011;49314;48.278;16.378;2023-03-17T03:47:04;30.40;;;28.52;;
63217;SDS011;49314;48.278;16.378;2023-03-17T03:49:29;29.92;;;28.42;;
63217;SDS011;49314;48.278;16.378;2023-03-17T03:51:54;29.80;;;28.15;;
63217;SDS011;49314;48.278;16.378;2023-03-17T03:54:20;29.55;;;27.92;;
63217;SDS011;49314;48.278;16.378;2023-03-17T03:56:45;28.00;;;26.40;;
63217;SDS011;49314;48.278;16.378;2023-03-17T03:59:10;27.83;;;26.33;;
63217;SDS011;49314;48.278;16.378;2023-03-17T04:01:35;28.48;;;26.70;;
63217;SDS011;49314;48.278;16.378;2023-03-17T04:04:01;30.30;;;28.65;;
63217;SDS011;49314;48.278;16.378;2023-03-17T04:06:26;30.58;;;28.88;;
63217;SDS011;49314;48.278;16.378;2023-03-17T04:08:51;31.70;;;29.70;;
63217;SDS011;49314;48.278;16.378;2023-03-17T04:11:17;33.20;;;31.05;;
63217;SDS011;49314;48.278;16.378;2023-03-17T04:13:42;30.52;;;28.85;;
63217;SDS011;49314;48.278;16.378;2023-03-17T04:16:07;29.02;;;27.52;;
63217;SDS011;49314;48.278;16.378;2023-03-17T04:18:32;30.20;;;28.55;;
63217;SDS011;49314;48.278;16.378;2023-03-17T04:20:58;31.65;;;29.98;;
63217;SDS011;49314;48.278;16.378;2023-03-17T04:23:23;33.22;;;31.35;;
63217;SDS011;49314;48.278;16.378;2023-03-17T04:25:49;30.65;;;28.92;;
63217;SDS011;49314;48.278;16.378;2023-03-17T04:28:14;29.35;;;27.80;;
63217;SDS011;49314;48.278;16.378;2023-03-17T04:30:40;30.60;;;28.83;;
63217;SDS011;49314;48.278;16.378;2023-03-17T04:33:05;32.33;;;30.42;;
63217;SDS011;49314;48.278;16.378;2023-03-17T04:35:31;28.95;;;27.40;;
63217;SDS011;49314;48.278;16.378;2023-03-17T04:37:56;32.55;;;30.77;;
63217;SDS011;49314;48.278;16.378;2023-03-17T04:40:21;31.58;;;29.70;;
63217;SDS011;49314;48.278;16.378;2023-03-17T04:42:46;32.17;;;30.52;;
63217;SDS011;49314;48.278;16.378;2023-03-17T04:45:12;32.10;;;30.30;;
63217;SDS011;49314;48.278;16.378;2023-03-17T04:47:39;31.95;;;29.92;;
63217;SDS011;49314;48.278;16.378;2023-03-17T04:50:05;31.67;;;29.98;;
63217;SDS011;49314;48.278;16.378;2023-03-17T04:52:33;30.25;;;28.48;;
63217;SDS011;49314;48.278;16.378;2023-03-17T04:54:58;31.58;;;29.88;;
63217;SDS011;49314;48.278;16.378;2023-03-17T04:57:23;31.10;;;29.30;;
63217;SDS011;49314;48.278;16.378;2023-03-17T04:59:49;31.05;;;29.25;;
63217;SDS011;49314;48.278;16.378;2023-03-17T05:02:14;33.80;;;31.70;;
63217;SDS011;49314;48.278;16.378;2023-03-17T05:04:39;32.58;;;30.60;;
63217;SDS011;49314;48.278;16.378;2023-03-17T05:07:04;31.83;;;30.08;;
63217;SDS011;49314;48.278;16.378;2023-03-17T05:09:30;31.70;;;30.05;;
63217;SDS011;49314;48.278;16.378;2023-03-17T05:11:56;34.67;;;32.65;;
63217;SDS011;49314;48.278;16.378;2023-03-17T05:14:21;33.63;;;31.67;;
63217;SDS011;49314;48.278;16.378;2023-03-17T05:16:47;32.85;;;30.80;;
63217;SDS011;49314;48.278;16.378;2023-03-17T05:19:12;31.95;;;30.17;;
63217;SDS011;49314;48.278;16.378;2023-03-17T05:21:37;31.83;;;29.85;;
63217;SDS011;49314;48.278;16.378;2023-03-17T05:24:05;32.00;;;30.25;;
63217;SDS011;49314;48.278;16.378;2023-03-17T05:26:31;33.97;;;31.58;;
63217;SDS011;49314;48.278;16.378;2023-03-17T05:28:56;31.27;;;29.67;;
63217;SDS011;49314;48.278;16.378;2023-03-17T05:31:22;31.33;;;29.60;;
63217;SDS011;49314;48.278;16.378;2023-03-17T05:33:47;31.27;;;29.60;;
63217;SDS011;49314;48.278;16.378;2023-03-17T05:36:13;32.60;;;30.45;;
63217;SDS011;49314;48.278;16.378;2023-03-17T05:38:38;31.20;;;29.55;;
63217;SDS011;49314;48.278;16.378;2023-03-17T05:41:03;31.58;;;29.95;;
63217;SDS011;49314;48.278;16.378;2023-03-17T05:43:29;30.50;;;28.98;;
63217;SDS011;49314;48.278;16.378;2023-03-17T05:45:54;32.80;;;30.85;;
63217;SDS011;49314;48.278;16.378;2023-03-17T05:48:19;32.08;;;29.98;;
63217;SDS011;49314;48.278;16.378;2023-03-17T05:50:45;32.33;;;30.33;;
63217;SDS011;49314;48.278;16.378;2023-03-17T05:53:10;32.20;;;30.10;;
63217;SDS011;49314;48.278;16.378;2023-03-17T05:55:35;31.90;;;29.98;;
63217;SDS011;49314;48.278;16.378;2023-03-17T05:58:01;31.48;;;29.30;;
63217;SDS011;49314;48.278;16.378;2023-03-17T06:00:28;30.42;;;28.48;;
63217;SDS011;49314;48.278;16.378;2023-03-17T06:02:54;30.33;;;28.80;;
63217;SDS011;49314;48.278;16.378;2023-03-17T06:05:19;31.42;;;29.60;;
63217;SDS011;49314;48.278;16.378;2023-03-17T06:07:44;30.50;;;28.73;;
63217;SDS011;49314;48.278;16.378;2023-03-17T06:10:10;34.10;;;32.00;;
63217;SDS011;49314;48.278;16.378;2023-03-17T06:12:36;20.98;;;19.52;;
63217;SDS011;49314;48.278;16.378;2023-03-17T06:15:01;33.15;;;31.15;;
63217;SDS011;49314;48.278;16.378;2023-03-17T06:17:26;32.28;;;30.02;;
63217;SDS011;49314;48.278;16.378;2023-03-17T06:19:52;30.92;;;29.08;;
63217;SDS011;49314;48.278;16.378;2023-03-17T06:22:17;30.30;;;28.50;;
63217;SDS011;49314;48.278;16.378;2023-03-17T06:24:42;29.50;;;27.65;;
63217;SDS011;49314;48.278;16.378;2023-03-17T06:27:08;29.63;;;27.85;;
63217;SDS011;49314;48.278;16.378;2023-03-17T06:29:35;20.92;;;19.30;;
63217;SDS011;49314;48.278;16.378;2023-03-17T06:32:00;34.83;;;32.40;;
63217;SDS011;49314;48.278;16.378;2023-03-17T06:34:25;33.78;;;31.98;;
63217;SDS011;49314;48.278;16.378;2023-03-17T06:36:51;15.85;;;14.63;;
63217;SDS011;49314;48.278;16.378;2023-03-17T06:39:16;29.90;;;28.27;;
63217;SDS011;49314;48.278;16.378;2023-03-17T06:41:42;29.38;;;27.98;;
63217;SDS011;49314;48.278;16.378;2023-03-17T06:44:07;22.25;;;20.60;;
63217;SDS011;49314;48.278;16.378;2023-03-17T06:46:34;28.58;;;26.98;;
63217;SDS011;49314;48.278;16.378;2023-03-17T06:49:00;19.95;;;18.85;;
63217;SDS011;49314;48.278;16.378;2023-03-17T06:51:25;14.95;;;13.63;;
63217;SDS011;49314;48.278;16.378;2023-03-17T06:53:50;13.23;;;12.23;;
63217;SDS011;49314;48.278;16.378;2023-03-17T06:56:15;29.13;;;27.48;;
63217;SDS011;49314;48.278;16.378;2023-03-17T06:58:41;19.10;;;11.63;;
63217;SDS011;49314;48.278;16.378;2023-03-17T07:01:06;20.25;;;18.48;;
63217;SDS011;49314;48.278;16.378;2023-03-17T07:03:32;27.95;;;26.20;;
63217;SDS011;49314;48.278;16.378;2023-03-17T07:05:57;21.35;;;20.00;;
63217;SDS011;49314;48.278;16.378;2023-03-17T07:08:23;17.38;;;16.23;;
63217;SDS011;49314;48.278;16.378;2023-03-17T07:10:48;14.70;;;13.77;;
63217;SDS011;49314;48.278;16.378;2023-03-17T07:13:15;15.48;;;14.13;;
63217;SDS011;49314;48.278;16.378;2023-03-17T07:15:40;19.60;;;18.40;;
63217;SDS011;49314;48.278;16.378;2023-03-17T07:18:06;20.25;;;18.25;;
63217;SDS011;49314;48.278;16.378;2023-03-17T07:20:32;17.38;;;16.27;;
63217;SDS011;49314;48.278;16.378;2023-03-17T07:22:57;18.77;;;17.63;;
63217;SDS011;49314;48.278;16.378;2023-03-17T07:25:22;15.80;;;14.55;;
63217;SDS011;49314;48.278;16.378;2023-03-17T07:27:48;10.82;;;9.80;;
63217;SDS011;49314;48.278;16.378;2023-03-17T07:30:13;12.43;;;11.48;;
63217;SDS011;49314;48.278;16.378;2023-03-17T07:32:42;11.30;;;10.40;;
63217;SDS011;49314;48.278;16.378;2023-03-17T07:35:08;12.70;;;11.55;;
63217;SDS011;49314;48.278;16.378;2023-03-17T07:37:33;13.80;;;12.90;;
63217;SDS011;49314;48.278;16.378;2023-03-17T07:39:58;9.77;;;8.88;;
63217;SDS011;49314;48.278;16.378;2023-03-17T07:42:23;8.77;;;7.93;;
63217;SDS011;49314;48.278;16.378;2023-03-17T07:44:49;9.63;;;8.77;;
63217;SDS011;49314;48.278;16.378;2023-03-17T07:47:14;8.18;;;7.43;;
63217;SDS011;49314;48.278;16.378;2023-03-17T07:49:39;9.55;;;8.73;;
63217;SDS011;49314;48.278;16.378;2023-03-17T07:52:05;8.38;;;7.68;;
63217;SDS011;49314;48.278;16.378;2023-03-17T07:54:30;10.38;;;9.50;;
63217;SDS011;49314;48.278;16.378;2023-03-17T07:56:56;10.10;;;9.05;;
63217;SDS011;49314;48.278;16.378;2023-03-17T07:59:21;9.18;;;8.00;;
63217;SDS011;49314;48.278;16.378;2023-03-17T08:01:47;7.70;;;6.88;;
63217;SDS011;49314;48.278;16.378;2023-03-17T08:04:12;8.80;;;8.00;;
63217;SDS011;49314;48.278;16.378;2023-03-17T08:06:39;8.30;;;7.50;;
63217;SDS011;49314;48.278;16.378;2023-03-17T08:09:07;7.75;;;7.07;;
63217;SDS011;49314;48.278;16.378;2023-03-17T08:11:33;9.32;;;7.47;;
63217;SDS011;49314;48.278;16.378;2023-03-17T08:13:59;7.53;;;6.93;;
63217;SDS011;49314;48.278;16.378;2023-03-17T08:16:25;10.45;;;6.63;;
63217;SDS011;49314;48.278;16.378;2023-03-17T08:18:51;10.88;;;8.80;;
63217;SDS011;49314;48.278;16.378;2023-03-17T08:21:17;6.40;;;5.43;;
63217;SDS011;49314;48.278;16.378;2023-03-17T08:23:42;9.23;;;7.10;;
63217;SDS011;49314;48.278;16.378;2023-03-17T08:26:07;10.15;;;7.07;;
63217;SDS011;49314;48.278;16.378;2023-03-17T08:28:33;7.55;;;6.47;;
63217;SDS011;49314;48.278;16.378;2023-03-17T08:31:12;7.90;;;7.07;;
63217;SDS011;49314;48.278;16.378;2023-03-17T08:33:41;10.82;;;7.22;;
63217;SDS011;49314;48.278;16.378;2023-03-17T08:36:07;7.13;;;6.55;;
63217;SDS011;49314;48.278;16.378;2023-03-17T08:38:34;7.82;;;7.22;;
63217;SDS011;49314;48.278;16.378;2023-03-17T08:41:01;7.35;;;6.75;;
63217;SDS011;49314;48.278;16.378;2023-03-17T08:43:27;10.30;;;7.32;;
63217;SDS011;49314;48.278;16.378;2023-03-17T08:45:57;7.18;;;6.35;;
63217;SDS011;49314;48.278;16.378;2023-03-17T08:48:22;9.70;;;6.20;;
63217;SDS011;49314;48.278;16.378;2023-03-17T08:50:47;8.38;;;7.15;;
63217;SDS011;49314;48.278;16.378;2023-03-17T08:53:13;9.50;;;7.25;;
63217;SDS011;49314;48.278;16.378;2023-03-17T08:55:38;7.63;;;6.65;;
63217;SDS011;49314;48.278;16.378;2023-03-17T08:58:03;8.82;;;6.88;;
63217;SDS011;49314;48.278;16.378;2023-03-17T09:00:29;9.85;;;7.20;;
63217;SDS011;49314;48.278;16.378;2023-03-17T09:02:54;8.73;;;6.70;;
63217;SDS011;49314;48.278;16.378;2023-03-17T09:05:20;8.00;;;6.63;;
63217;SDS011;49314;48.278;16.378;2023-03-17T09:07:46;9.32;;;7.03;;
63217;SDS011;49314;48.278;16.378;2023-03-17T09:10:12;7.18;;;6.57;;
63217;SDS011;49314;48.278;16.378;2023-03-17T09:12:40;11.18;;;8.23;;
63217;SDS011;49314;48.278;16.378;2023-03-17T09:15:07;8.55;;;6.50;;
63217;SDS011;49314;48.278;16.378;2023-03-17T09:17:32;8.57;;;7.85;;
63217;SDS011;49314;48.278;16.378;2023-03-17T09:19:58;10.60;;;7.05;;
63217;SDS011;49314;48.278;16.378;2023-03-17T09:22:23;10.13;;;8.18;;
63217;SDS011;49314;48.278;16.378;2023-03-17T09:24:49;9.33;;;7.00;;
63217;SDS011;49314;48.278;16.378;2023-03-17T09:27:14;8.43;;;7.25;;
63217;SDS011;49314;48.278;16.378;2023-03-17T09:29:40;9.38;;;7.10;;
63217;SDS011;49314;48.278;16.378;2023-03-17T09:32:06;8.85;;;7.05;;
63217;SDS011;49314;48.278;16.378;2023-03-17T09:34:32;8.55;;;7.70;;
63217;SDS011;49314;48.278;16.378;2023-03-17T09:36:59;11.98;;;7.65;;
63217;SDS011;49314;48.278;16.378;2023-03-17T09:39:25;8.65;;;7.22;;
63217;SDS011;49314;48.278;16.378;2023-03-17T09:42:03;9.32;;;8.38;;
63217;SDS011;49314;48.278;16.378;2023-03-17T09:49:56;7.88;;;7.15;;
63217;SDS011;49314;48.278;16.378;2023-03-17T09:52:29;8.65;;;7.82;;
63217;SDS011;49314;48.278;16.378;2023-03-17T09:54:55;7.60;;;6.07;;
63217;SDS011;49314;48.278;16.378;2023-03-17T09:57:23;8.63;;;7.43;;
63217;SDS011;49314;48.278;16.378;2023-03-17T09:59:49;11.07;;;8.18;;
63217;SDS011;49314;48.278;16.378;2023-03-17T10:04:41;8.00;;;6.93;;
63217;SDS011;49314;48.278;16.378;2023-03-17T10:07:08;8.20;;;7.38;;
63217;SDS011;49314;48.278;16.378;2023-03-17T10:09:45;8.13;;;7.35;;
63217;SDS011;49314;48.278;16.378;2023-03-17T10:14:57;6.78;;;5.97;;
63217;SDS011;49314;48.278;16.378;2023-03-17T10:17:25;8.57;;;7.03;;
63217;SDS011;49314;48.278;16.378;2023-03-17T10:20:07;11.75;;;6.93;;
63217;SDS011;49314;48.278;16.378;2023-03-17T10:25:15;11.03;;;5.57;;
63217;SDS011;49314;48.278;16.378;2023-03-17T10:27:41;11.40;;;6.72;;
63217;SDS011;49314;48.278;16.378;2023-03-17T10:30:12;8.20;;;6.35;;
63217;SDS011;49314;48.278;16.378;2023-03-17T10:32:38;7.80;;;7.00;;
63217;SDS011;49314;48.278;16.378;2023-03-17T10:35:03;8.27;;;6.35;;
63217;SDS011;49314;48.278;16.378;2023-03-17T10:37:29;7.97;;;6.85;;
63217;SDS011;49314;48.278;16.378;2023-03-17T10:40:00;8.60;;;6.20;;
63217;SDS011;49314;48.278;16.378;2023-03-17T10:42:29;7.72;;;4.90;;
63217;SDS011;49314;48.278;16.378;2023-03-17T10:47:43;7.05;;;6.35;;
63217;SDS011;49314;48.278;16.378;2023-03-17T10:52:57;7.32;;;5.90;;
63217;SDS011;49314;48.278;16.378;2023-03-17T10:55:25;7.30;;;5.93;;
63217;SDS011;49314;48.278;16.378;2023-03-17T10:57:53;8.13;;;6.47;;
63217;SDS011;49314;48.278;16.378;2023-03-17T11:00:22;8.18;;;5.47;;
63217;SDS011;49314;48.278;16.378;2023-03-17T11:02:54;9.50;;;6.32;;
63217;SDS011;49314;48.278;16.378;2023-03-17T11:05:22;8.60;;;5.50;;
63217;SDS011;49314;48.278;16.378;2023-03-17T11:07:47;5.68;;;4.75;;
63217;SDS011;49314;48.278;16.378;2023-03-17T11:10:14;5.28;;;4.53;;
63217;SDS011;49314;48.278;16.378;2023-03-17T11:12:41;5.72;;;5.13;;
63217;SDS011;49314;48.278;16.378;2023-03-17T11:15:09;9.73;;;6.60;;
63217;SDS011;49314;48.278;16.378;2023-03-17T11:20:18;7.57;;;5.45;;
63217;SDS011;49314;48.278;16.378;2023-03-17T11:22:48;5.38;;;4.95;;
63217;SDS011;49314;48.278;16.378;2023-03-17T11:25:18;7.20;;;5.38;;
63217;SDS011;49314;48.278;16.378;2023-03-17T11:32:45;6.10;;;4.20;;
63217;SDS011;49314;48.278;16.378;2023-03-17T11:38:19;6.55;;;5.32;;
63217;SDS011;49314;48.278;16.378;2023-03-17T11:48:34;9.82;;;5.95;;
63217;SDS011;49314;48.278;16.378;2023-03-17T11:53:39;8.48;;;6.45;;
63217;SDS011;49314;48.278;16.378;2023-03-17T11:58:51;6.60;;;5.65;;
63217;SDS011;49314;48.278;16.378;2023-03-17T12:01:20;12.35;;;5.65;;
63217;SDS011;49314;48.278;16.378;2023-03-17T12:03:52;8.38;;;5.75;;
63217;SDS011;49314;48.278;16.378;2023-03-17T12:06:33;5.78;;;4.78;;
63217;SDS011;49314;48.278;16.378;2023-03-17T12:09:00;5.28;;;4.68;;
63217;SDS011;49314;48.278;16.378;2023-03-17T12:11:28;13.05;;;5.72;;
63217;SDS011;49314;48.278;16.378;2023-03-17T12:13:57;8.95;;;5.35;;
63217;SDS011;49314;48.278;16.378;2023-03-17T12:24:29;7.05;;;6.47;;
63217;SDS011;49314;48.278;16.378;2023-03-17T12:27:03;11.27;;;6.25;;
63217;SDS011;49314;48.278;16.378;2023-03-17T12:32:02;10.02;;;6.15;;
63217;SDS011;49314;48.278;16.378;2023-03-17T12:34:39;6.80;;;6.13;;
63217;SDS011;49314;48.278;16.378;2023-03-17T12:37:07;8.27;;;5.93;;
63217;SDS011;49314;48.278;16.378;2023-03-17T12:39:33;5.63;;;5.05;;
63217;SDS011;49314;48.278;16.378;2023-03-17T12:42:00;6.35;;;5.75;;
63217;SDS011;49314;48.278;16.378;2023-03-17T12:52:43;6.55;;;5.40;;
63217;SDS011;49314;48.278;16.378;2023-03-17T12:55:13;5.15;;;4.28;;
63217;SDS011;49314;48.278;16.378;2023-03-17T12:57:40;6.22;;;5.72;;
63217;SDS011;49314;48.278;16.378;2023-03-17T13:05:53;6.22;;;5.72;;
63217;SDS011;49314;48.278;16.378;2023-03-17T13:08:23;6.13;;;5.57;;
63217;SDS011;49314;48.278;16.378;2023-03-17T13:10:49;6.88;;;5.22;;
63217;SDS011;49314;48.278;16.378;2023-03-17T13:16:01;5.13;;;4.82;;
63217;SDS011;49314;48.278;16.378;2023-03-17T13:23:43;5.22;;;4.35;;
63217;SDS011;49314;48.278;16.378;2023-03-17T13:26:52;6.43;;;4.93;;
63217;SDS011;49314;48.278;16.378;2023-03-17T13:28:58;5.50;;;4.97;;
63217;SDS011;49314;48.278;16.378;2023-03-17T13:31:29;4.72;;;4.22;;
63217;SDS011;49314;48.278;16.378;2023-03-17T13:33:56;6.03;;;5.53;;
63217;SDS011;49314;48.278;16.378;2023-03-17T13:36:26;5.95;;;5.45;;
63217;SDS011;49314;48.278;16.378;2023-03-17T13:42:02;9.70;;;5.88;;
63217;SDS011;49314;48.278;16.378;2023-03-17T13:52:48;6.10;;;5.60;;
63217;SDS011;49314;48.278;16.378;2023-03-17T13:57:42;4.93;;;4.32;;
63217;SDS011;49314;48.278;16.378;2023-03-17T14:02:43;5.60;;;4.78;;
63217;SDS011;49314;48.278;16.378;2023-03-17T14:05:20;5.85;;;5.20;;
63217;SDS011;49314;48.278;16.378;2023-03-17T14:07:52;7.15;;;5.50;;
63217;SDS011;49314;48.278;16.378;2023-03-17T14:10:19;7.80;;;6.88;;
63217;SDS011;49314;48.278;16.378;2023-03-17T14:12:53;6.38;;;5.78;;
63217;SDS011;49314;48.278;16.378;2023-03-17T14:15:31;6.45;;;5.85;;
63217;SDS011;49314;48.278;16.378;2023-03-17T14:18:07;7.63;;;7.03;;
63217;SDS011;49314;48.278;16.378;2023-03-17T14:20:34;6.03;;;5.38;;
63217;SDS011;49314;48.278;16.378;2023-03-17T14:23:00;7.30;;;6.03;;
63217;SDS011;49314;48.278;16.378;2023-03-17T14:25:30;6.40;;;5.68;;
63217;SDS011;49314;48.278;16.378;2023-03-17T14:27:56;7.97;;;5.95;;
63217;SDS011;49314;48.278;16.378;2023-03-17T14:30:23;6.57;;;6.03;;
63217;SDS011;49314;48.278;16.378;2023-03-17T14:32:50;6.18;;;5.68;;
63217;SDS011;49314;48.278;16.378;2023-03-17T14:35:15;7.15;;;6.50;;
63217;SDS011;49314;48.278;16.378;2023-03-17T14:37:41;6.22;;;5.63;;
63217;SDS011;49314;48.278;16.378;2023-03-17T14:40:27;5.80;;;5.40;;
63217;SDS011;49314;48.278;16.378;2023-03-17T14:42:51;6.38;;;5.03;;
63217;SDS011;49314;48.278;16.378;2023-03-17T14:45:27;7.25;;;5.50;;
63217;SDS011;49314;48.278;16.378;2023-03-17T14:47:53;7.43;;;5.75;;
63217;SDS011;49314;48.278;16.378;2023-03-17T14:50:22;7.10;;;6.40;;
63217;SDS011;49314;48.278;16.378;2023-03-17T14:52:49;7.72;;;7.03;;
63217;SDS011;49314;48.278;16.378;2023-03-17T14:55:14;8.38;;;6.05;;
63217;SDS011;49314;48.278;16.378;2023-03-17T14:57:40;7.60;;;6.18;;
63217;SDS011;49314;48.278;16.378;2023-03-17T15:00:23;6.75;;;6.20;;
63217;SDS011;49314;48.278;16.378;2023-03-17T15:02:54;8.07;;;7.38;;
63217;SDS011;49314;48.278;16.378;2023-03-17T15:07:54;7.60;;;6.90;;
63217;SDS011;49314;48.278;16.378;2023-03-17T15:10:22;10.30;;;7.13;;
63217;SDS011;49314;48.278;16.378;2023-03-17T15:12:48;9.80;;;6.75;;
63217;SDS011;49314;48.278;16.378;2023-03-17T15:15:25;7.30;;;6.72;;
63217;SDS011;49314;48.278;16.378;2023-03-17T15:17:51;7.55;;;6.90;;
63217;SDS011;49314;48.278;16.378;2023-03-17T15:20:18;7.30;;;6.70;;
63217;SDS011;49314;48.278;16.378;2023-03-17T15:22:48;8.10;;;7.40;;
63217;SDS011;49314;48.278;16.378;2023-03-17T15:25:23;7.00;;;6.30;;
63217;SDS011;49314;48.278;16.378;2023-03-17T15:27:49;6.85;;;6.15;;
63217;SDS011;49314;48.278;16.378;2023-03-17T15:30:15;9.95;;;7.35;;
63217;SDS011;49314;48.278;16.378;2023-03-17T15:32:40;8.18;;;7.32;;
63217;SDS011;49314;48.278;16.378;2023-03-17T15:35:06;9.05;;;8.13;;
63217;SDS011;49314;48.278;16.378;2023-03-17T15:37:32;8.13;;;6.80;;
63217;SDS011;49314;48.278;16.378;2023-03-17T15:39:58;8.00;;;7.35;;
63217;SDS011;49314;48.278;16.378;2023-03-17T15:42:24;7.50;;;6.90;;
63217;SDS011;49314;48.278;16.378;2023-03-17T15:44:50;8.80;;;6.97;;
63217;SDS011;49314;48.278;16.378;2023-03-17T15:47:19;8.85;;;6.85;;
63217;SDS011;49314;48.278;16.378;2023-03-17T15:49:45;9.63;;;8.07;;
63217;SDS011;49314;48.278;16.378;2023-03-17T15:52:20;7.45;;;6.80;;
63217;SDS011;49314;48.278;16.378;2023-03-17T15:54:49;7.25;;;6.65;;
63217;SDS011;49314;48.278;16.378;2023-03-17T15:57:15;8.65;;;7.95;;
63217;SDS011;49314;48.278;16.378;2023-03-17T15:59:40;7.82;;;7.13;;